Time;durP1;ratioP1;P1;durP2;ratioP2;P2;SDS_P1;SDS_P2;PMS_P1;PMS_P2;Temp;Humidity;BMP_temperature;BMP_pressure;BME280_temperature;BME280_humidity;BME280_pressure;Samples;Min_cycle;Max_cycle;Signal;HPM_P1;HPM_P2
2023/04/24 00:01:50;;;;;;;17.93;12.73;;;15.70;99.90;;;;;;4994679;28;20401;-87
2023/04/24 00:04:16;;;;;;;15.23;13.50;;;15.70;99.90;;;;;;4994877;28;20176;-81
2023/04/24 00:06:43;;;;;;;20.17;13.37;;;15.70;99.90;;;;;;4995558;28;20433;-88
2023/04/24 00:09:11;;;;;;;14.03;12.50;;;15.70;99.90;;;;;;4997238;28;20518;-86
2023/04/24 00:11:37;;;;;;;13.23;12.00;;;15.70;99.90;;;;;;4994804;28;20430;-87
2023/04/24 00:14:03;;;;;;;14.93;13.53;;;15.70;99.90;;;;;;4994726;28;20540;-82
2023/04/24 00:16:29;;;;;;;17.53;12.93;;;15.70;99.90;;;;;;4993546;28;20206;-88
2023/04/24 00:18:55;;;;;;;16.33;13.30;;;15.70;99.90;;;;;;4994930;28;20194;-90
2023/04/24 00:21:21;;;;;;;15.30;13.80;;;15.70;99.90;;;;;;4994807;28;20444;-82
2023/04/24 00:23:48;;;;;;;14.27;12.30;;;15.70;99.90;;;;;;4997483;28;20774;-89
2023/04/24 00:26:14;;;;;;;14.80;13.23;;;15.70;99.90;;;;;;4994714;28;20425;-82
2023/04/24 00:28:40;;;;;;;15.67;14.17;;;15.60;99.90;;;;;;4993489;28;20527;-90
2023/04/24 00:31:05;;;;;;;15.67;13.53;;;15.50;99.90;;;;;;4993210;28;20645;-82
2023/04/24 00:33:31;;;;;;;16.90;13.90;;;15.50;99.90;;;;;;4994390;28;20445;-89
2023/04/24 00:35:57;;;;;;;14.13;12.70;;;15.40;99.90;;;;;;4993372;28;20665;-82
2023/04/24 00:38:22;;;;;;;15.70;13.03;;;15.40;99.90;;;;;;4994345;28;20230;-89
2023/04/24 00:40:50;;;;;;;15.80;13.00;;;15.40;99.90;;;;;;4994353;28;20192;-81
2023/04/24 00:43:16;;;;;;;15.60;12.80;;;15.30;99.90;;;;;;4993251;28;20208;-81
2023/04/24 00:45:42;;;;;;;15.83;12.30;;;15.30;99.90;;;;;;4994586;28;20890;-82
2023/04/24 00:48:08;;;;;;;15.50;12.50;;;15.30;99.90;;;;;;4993333;28;20503;-81
2023/04/24 00:50:36;;;;;;;14.47;12.97;;;15.30;99.90;;;;;;4994127;28;20235;-81
2023/04/24 00:53:02;;;;;;;16.30;12.27;;;15.20;99.90;;;;;;4993482;28;20432;-81
2023/04/24 00:55:28;;;;;;;13.00;11.37;;;15.20;99.90;;;;;;4994632;28;20441;-82
2023/04/24 00:57:54;;;;;;;15.77;13.00;;;15.20;99.90;;;;;;4992931;28;20184;-81
2023/04/24 01:00:20;;;;;;;14.70;11.97;;;15.20;99.90;;;;;;4994576;28;20516;-89
2023/04/24 01:02:47;;;;;;;13.00;11.27;;;15.20;99.90;;;;;;4992799;28;20184;-89
2023/04/24 01:05:14;;;;;;;14.93;13.03;;;15.20;99.90;;;;;;4993186;28;20438;-89
2023/04/24 01:07:45;;;;;;;12.70;11.40;;;15.20;99.90;;;;;;4994099;28;20479;-81
2023/04/24 01:10:12;;;;;;;13.57;11.77;;;15.20;99.90;;;;;;4999315;28;20472;-89
2023/04/24 01:12:38;;;;;;;14.30;11.23;;;15.20;99.90;;;;;;4994173;28;20409;-82
2023/04/24 01:15:06;;;;;;;13.93;12.47;;;15.20;99.90;;;;;;4992772;28;21001;-82
2023/04/24 01:17:32;;;;;;;15.13;13.53;;;15.10;99.90;;;;;;4994524;28;20814;-82
2023/04/24 01:19:59;;;;;;;15.30;13.70;;;15.00;99.90;;;;;;4996791;28;20465;-89
2023/04/24 01:22:26;;;;;;;13.83;12.53;;;15.00;99.90;;;;;;4996316;28;20425;-87
2023/04/24 01:24:52;;;;;;;16.17;12.50;;;15.10;99.90;;;;;;4996554;28;20492;-81
2023/04/24 01:27:20;;;;;;;14.63;12.60;;;15.10;99.90;;;;;;4997500;28;20896;-81
2023/04/24 01:29:47;;;;;;;14.63;13.13;;;15.10;99.90;;;;;;4995961;28;20523;-81
2023/04/24 01:32:13;;;;;;;13.47;12.17;;;15.10;99.90;;;;;;4997194;28;20406;-89
2023/04/24 01:34:40;;;;;;;14.33;12.83;;;15.10;99.90;;;;;;4997770;28;20540;-90
2023/04/24 01:37:06;;;;;;;13.60;12.30;;;15.20;99.90;;;;;;4997493;28;20413;-82
2023/04/24 01:39:33;;;;;;;13.87;12.50;;;15.20;99.90;;;;;;4996997;28;20484;-89
2023/04/24 01:41:59;;;;;;;14.27;12.47;;;15.20;99.90;;;;;;4996121;28;20189;-81
2023/04/24 01:44:26;;;;;;;21.30;12.37;;;15.10;99.90;;;;;;4996159;28;20499;-81
2023/04/24 01:46:53;;;;;;;13.70;12.27;;;15.00;99.90;;;;;;4997237;28;20410;-88
2023/04/24 01:49:19;;;;;;;17.10;11.90;;;15.00;99.90;;;;;;4995685;28;20492;-82
2023/04/24 01:51:45;;;;;;;14.00;12.00;;;14.90;99.90;;;;;;4995878;28;20835;-81
2023/04/24 01:54:11;;;;;;;16.27;13.67;;;14.80;99.90;;;;;;4995875;28;20441;-89
2023/04/24 01:56:42;;;;;;;15.27;11.80;;;14.70;99.90;;;;;;4997610;28;20440;-82
2023/04/24 01:59:10;;;;;;;13.97;12.47;;;14.70;99.90;;;;;;4997845;28;20538;-81
2023/04/24 02:01:37;;;;;;;14.20;12.70;;;14.70;99.90;;;;;;4995641;28;20517;-80
2023/04/24 02:04:03;;;;;;;17.03;12.80;;;14.80;99.90;;;;;;4997331;28;20437;-81
2023/04/24 02:06:30;;;;;;;13.40;12.00;;;14.70;99.90;;;;;;4998311;28;20524;-82
2023/04/24 02:08:59;;;;;;;15.00;13.10;;;14.80;99.90;;;;;;4996800;28;20473;-89
2023/04/24 02:11:25;;;;;;;14.83;13.50;;;14.70;99.90;;;;;;4995678;28;20442;-82
2023/04/24 02:13:51;;;;;;;13.97;12.53;;;14.70;99.90;;;;;;4995621;28;20504;-89
2023/04/24 02:16:17;;;;;;;15.07;12.87;;;14.70;99.90;;;;;;4995809;28;20445;-89
2023/04/24 02:18:43;;;;;;;16.23;14.50;;;14.70;99.90;;;;;;4996789;28;20410;-88
2023/04/24 02:21:10;;;;;;;13.07;11.37;;;14.70;99.90;;;;;;4995400;28;20425;-88
2023/04/24 02:23:35;;;;;;;15.87;13.13;;;14.70;99.90;;;;;;4996521;28;20487;-82
2023/04/24 02:26:01;;;;;;;16.43;12.83;;;14.70;99.90;;;;;;4996226;28;20434;-89
2023/04/24 02:28:27;;;;;;;12.87;11.67;;;14.70;99.90;;;;;;4995984;28;20226;-89
2023/04/24 02:30:53;;;;;;;13.87;12.23;;;14.80;99.90;;;;;;4995039;28;20204;-89
2023/04/24 02:33:18;;;;;;;14.17;12.77;;;14.80;99.90;;;;;;4994901;28;20433;-88
2023/04/24 02:35:44;;;;;;;13.50;11.80;;;14.80;99.90;;;;;;4996148;28;20472;-81
2023/04/24 02:38:10;;;;;;;13.47;12.13;;;14.90;99.90;;;;;;4997272;28;20239;-88
2023/04/24 02:40:35;;;;;;;13.00;11.80;;;14.90;99.90;;;;;;4995524;28;20677;-82
2023/04/24 02:43:01;;;;;;;13.30;11.93;;;15.00;99.90;;;;;;4996980;28;20647;-80
2023/04/24 02:45:27;;;;;;;13.60;12.20;;;15.00;99.90;;;;;;4996540;28;20287;-81
2023/04/24 02:47:53;;;;;;;13.00;11.70;;;15.10;99.90;;;;;;4995931;28;20172;-85
2023/04/24 02:50:18;;;;;;;12.50;11.30;;;15.10;99.90;;;;;;4996965;28;20231;-87
2023/04/24 02:52:44;;;;;;;11.50;10.30;;;15.20;99.90;;;;;;4995953;28;20259;-82
2023/04/24 02:55:10;;;;;;;13.77;12.27;;;15.20;99.90;;;;;;4995873;28;20191;-82
2023/04/24 02:57:36;;;;;;;14.07;11.97;;;15.20;99.90;;;;;;4994524;28;20447;-88
2023/04/24 03:00:03;;;;;;;14.00;12.60;;;15.20;99.90;;;;;;4996125;28;20226;-81
2023/04/24 03:02:28;;;;;;;13.40;12.10;;;15.10;99.90;;;;;;4995596;28;20178;-81
2023/04/24 03:04:54;;;;;;;13.33;11.90;;;15.10;99.90;;;;;;4994936;28;20453;-81
2023/04/24 03:07:20;;;;;;;13.97;12.50;;;15.10;99.90;;;;;;4994477;28;20629;-81
2023/04/24 03:09:47;;;;;;;12.93;11.53;;;15.10;99.90;;;;;;4993916;28;20496;-82
2023/04/24 03:12:13;;;;;;;15.80;13.20;;;15.00;99.90;;;;;;4994325;28;20413;-81
2023/04/24 03:14:39;;;;;;;14.20;12.70;;;15.00;99.90;;;;;;4994366;28;20457;-88
2023/04/24 03:17:04;;;;;;;16.83;12.70;;;14.90;99.90;;;;;;4994101;28;20549;-83
2023/04/24 03:19:30;;;;;;;13.40;11.80;;;14.90;99.90;;;;;;4995336;28;20449;-82
2023/04/24 03:21:56;;;;;;;13.60;12.17;;;15.00;99.90;;;;;;4994062;28;20416;-82
2023/04/24 03:24:22;;;;;;;14.20;12.77;;;15.00;99.90;;;;;;4994066;28;20195;-82
2023/04/24 03:26:47;;;;;;;18.40;12.70;;;15.10;99.90;;;;;;4995211;28;20634;-82
2023/04/24 03:29:13;;;;;;;14.70;13.20;;;15.00;99.90;;;;;;4993650;28;20521;-87
2023/04/24 03:31:39;;;;;;;16.33;12.93;;;15.10;99.90;;;;;;4993903;28;20171;-82
2023/04/24 03:34:05;;;;;;;15.73;14.13;;;15.20;99.90;;;;;;4993752;28;20179;-82
2023/04/24 03:36:30;;;;;;;18.30;14.47;;;15.20;99.90;;;;;;4995036;28;20254;-81
2023/04/24 03:38:56;;;;;;;16.23;14.53;;;15.20;99.90;;;;;;4993401;28;20228;-81
2023/04/24 03:41:22;;;;;;;15.70;14.10;;;15.20;99.90;;;;;;4994289;28;20426;-87
2023/04/24 03:43:48;;;;;;;17.70;14.73;;;15.20;99.90;;;;;;4994888;28;20199;-87
2023/04/24 03:46:14;;;;;;;15.67;14.07;;;15.20;99.90;;;;;;4993687;28;20452;-82
2023/04/24 03:48:40;;;;;;;15.73;13.90;;;15.10;99.90;;;;;;4994790;28;20215;-82
2023/04/24 03:51:06;;;;;;;15.90;14.20;;;15.00;99.90;;;;;;4993914;28;20441;-82
2023/04/24 03:53:32;;;;;;;16.33;13.27;;;14.90;99.90;;;;;;4994509;28;20526;-81
2023/04/24 03:55:58;;;;;;;14.53;13.03;;;14.80;99.90;;;;;;4995968;28;20199;-88
2023/04/24 03:58:23;;;;;;;14.93;13.43;;;14.80;99.90;;;;;;4993261;28;20171;-89
2023/04/24 04:00:50;;;;;;;17.13;13.57;;;14.70;99.90;;;;;;4993649;28;20456;-88
2023/04/24 04:03:16;;;;;;;17.10;13.20;;;14.70;99.90;;;;;;4996436;28;20188;-87
2023/04/24 04:05:41;;;;;;;15.90;14.30;;;14.50;99.90;;;;;;4993536;28;20491;-81
2023/04/24 04:08:07;;;;;;;18.13;16.23;;;14.50;99.90;;;;;;4993198;28;20413;-81
2023/04/24 04:10:33;;;;;;;15.43;12.97;;;14.50;99.90;;;;;;4992046;28;20298;-81
2023/04/24 04:12:58;;;;;;;17.20;14.50;;;14.50;99.90;;;;;;4994411;28;20180;-80
2023/04/24 04:15:24;;;;;;;17.10;13.13;;;14.60;99.90;;;;;;4991810;28;20210;-88
2023/04/24 04:17:49;;;;;;;16.17;14.50;;;14.60;99.90;;;;;;4994427;28;20587;-86
2023/04/24 04:20:15;;;;;;;16.70;13.37;;;14.60;99.90;;;;;;4993227;28;20543;-81
2023/04/24 04:22:41;;;;;;;16.50;14.27;;;14.60;99.90;;;;;;5001221;28;20652;-81
2023/04/24 04:25:08;;;;;;;14.97;13.30;;;14.70;99.90;;;;;;4991878;28;20216;-81
2023/04/24 04:27:34;;;;;;;14.60;13.10;;;14.70;99.90;;;;;;4999136;28;20645;-82
2023/04/24 04:30:04;;;;;;;15.67;13.17;;;14.60;99.90;;;;;;4974914;28;20506;-81
2023/04/24 04:32:37;;;;;;;20.20;14.60;;;14.60;99.90;;;;;;4981812;28;20426;-90
2023/04/24 04:35:03;;;;;;;16.90;14.97;;;14.60;99.90;;;;;;5006188;28;21046;-81
2023/04/24 04:37:35;;;;;;;16.47;13.50;;;14.60;99.90;;;;;;4973789;28;20493;-88
2023/04/24 04:40:09;;;;;;;19.07;14.53;;;14.60;99.90;;;;;;4990764;28;21089;-81
2023/04/24 04:42:35;;;;;;;16.60;14.90;;;14.60;99.90;;;;;;4991963;28;20438;-89
2023/04/24 04:45:00;;;;;;;15.07;13.50;;;14.40;99.90;;;;;;4991937;28;20491;-88
2023/04/24 04:47:28;;;;;;;15.47;13.97;;;14.30;99.90;;;;;;4992049;28;20176;-81
2023/04/24 04:49:54;;;;;;;17.03;14.70;;;14.30;99.90;;;;;;4991819;28;20230;-91
2023/04/24 04:52:24;;;;;;;15.40;13.80;;;14.10;99.90;;;;;;4989701;28;20418;-81
2023/04/24 04:54:50;;;;;;;16.57;14.67;;;14.10;99.90;;;;;;4982812;28;20568;-80
2023/04/24 04:57:15;;;;;;;16.43;14.50;;;14.20;99.90;;;;;;4994243;28;20908;-81
2023/04/24 04:59:41;;;;;;;16.70;15.07;;;14.30;99.90;;;;;;4988079;28;20235;-88
2023/04/24 05:02:07;;;;;;;20.07;15.20;;;14.40;99.90;;;;;;4993177;28;20645;-80
2023/04/24 05:04:33;;;;;;;19.80;15.90;;;14.40;99.90;;;;;;4993554;28;20510;-89
2023/04/24 05:06:59;;;;;;;16.67;13.70;;;14.40;99.90;;;;;;4995829;28;20168;-81
2023/04/24 05:09:27;;;;;;;16.17;14.47;;;14.40;99.90;;;;;;4992288;28;20277;-81
2023/04/24 05:11:53;;;;;;;16.20;14.60;;;14.40;99.90;;;;;;4989768;28;20425;-80
2023/04/24 05:14:18;;;;;;;17.80;16.00;;;14.50;99.90;;;;;;4989898;28;20429;-88
2023/04/24 05:16:45;;;;;;;18.63;16.37;;;14.40;99.90;;;;;;4994940;28;20433;-87
2023/04/24 05:19:14;;;;;;;19.07;16.17;;;14.50;99.90;;;;;;4993800;28;20430;-80
2023/04/24 05:21:41;;;;;;;26.50;20.27;;;14.50;99.90;;;;;;5011368;28;20419;-80
2023/04/24 05:24:07;;;;;;;20.07;16.70;;;14.60;99.90;;;;;;5002151;28;20476;-80
2023/04/24 05:26:32;;;;;;;18.10;16.20;;;14.70;99.90;;;;;;4996902;28;20444;-80
2023/04/24 05:28:58;;;;;;;17.80;15.90;;;14.70;99.90;;;;;;4990318;28;20227;-81
2023/04/24 05:31:25;;;;;;;18.70;15.30;;;14.70;99.90;;;;;;4991768;28;20262;-88
2023/04/24 05:33:50;;;;;;;16.57;14.87;;;14.70;99.90;;;;;;4996083;28;20809;-80
2023/04/24 05:36:16;;;;;;;18.10;15.60;;;14.50;99.90;;;;;;5013535;28;20448;-86
2023/04/24 05:38:42;;;;;;;17.87;15.30;;;14.50;99.90;;;;;;5001499;28;20231;-80
2023/04/24 05:41:07;;;;;;;16.70;15.00;;;14.50;99.90;;;;;;4996712;28;20204;-88
2023/04/24 05:43:33;;;;;;;20.90;16.03;;;14.50;99.90;;;;;;4995954;28;20179;-79
2023/04/24 05:45:59;;;;;;;18.57;16.70;;;14.60;99.90;;;;;;4989704;28;20202;-80
2023/04/24 05:48:25;;;;;;;22.60;15.63;;;14.60;99.90;;;;;;5010087;28;20208;-89
2023/04/24 05:50:52;;;;;;;17.33;14.47;;;14.50;99.90;;;;;;4994518;28;20515;-80
2023/04/24 05:53:18;;;;;;;17.20;15.40;;;14.50;99.90;;;;;;4993110;28;20416;-88
2023/04/24 05:55:44;;;;;;;19.07;15.03;;;14.50;99.90;;;;;;4984158;28;20442;-88
2023/04/24 05:58:11;;;;;;;18.03;13.20;;;14.60;99.90;;;;;;4974243;28;20411;-88
2023/04/24 06:00:39;;;;;;;16.23;14.57;;;14.50;99.90;;;;;;4993742;28;20441;-80
2023/04/24 06:03:05;;;;;;;16.73;14.97;;;14.40;99.90;;;;;;4994211;28;20923;-80
2023/04/24 06:05:31;;;;;;;16.53;14.40;;;14.40;99.90;;;;;;4989289;28;20457;-80
2023/04/24 06:07:57;;;;;;;16.53;13.30;;;14.50;99.90;;;;;;4983809;28;20214;-84
2023/04/24 06:10:23;;;;;;;17.20;15.40;;;14.50;99.90;;;;;;4979388;28;20465;-80
2023/04/24 06:12:49;;;;;;;18.27;16.20;;;14.50;99.90;;;;;;4993718;28;20405;-87
2023/04/24 06:15:14;;;;;;;17.90;16.00;;;14.50;99.90;;;;;;4991901;28;20563;-85
2023/04/24 06:17:40;;;;;;;17.80;15.97;;;14.60;99.90;;;;;;4992533;28;20401;-87
2023/04/24 06:20:07;;;;;;;19.10;15.30;;;14.60;99.90;;;;;;4987483;28;20235;-87
2023/04/24 06:22:33;;;;;;;16.70;15.00;;;14.60;99.90;;;;;;4992563;28;20430;-86
2023/04/24 06:25:00;;;;;;;18.03;16.13;;;14.60;99.90;;;;;;4986978;28;20539;-89
2023/04/24 06:27:26;;;;;;;20.43;16.30;;;14.60;99.90;;;;;;4992406;28;20184;-88
2023/04/24 06:29:54;;;;;;;18.13;16.40;;;14.50;99.90;;;;;;4989852;28;20512;-87
2023/04/24 06:32:24;;;;;;;17.83;15.80;;;14.30;99.90;;;;;;4993719;28;20203;-87
2023/04/24 06:34:52;;;;;;;19.80;17.73;;;14.30;99.90;;;;;;4991166;28;20552;-87
2023/04/24 06:37:19;;;;;;;19.40;16.70;;;14.30;99.90;;;;;;4991378;28;20422;-80
2023/04/24 06:39:44;;;;;;;18.87;15.33;;;14.20;99.90;;;;;;4991526;28;20500;-86
2023/04/24 06:42:11;;;;;;;24.10;16.77;;;14.00;99.90;;;;;;4987293;28;20417;-86
2023/04/24 06:44:40;;;;;;;20.13;14.83;;;13.90;99.90;;;;;;4987224;28;20257;-80
2023/04/24 06:47:10;;;;;;;24.50;16.07;;;13.80;99.90;;;;;;4989622;28;20414;-85
2023/04/24 06:49:36;;;;;;;18.80;16.83;;;13.80;99.90;;;;;;4990146;28;20916;-80
2023/04/24 06:52:02;;;;;;;23.07;17.93;;;13.80;99.90;;;;;;4991343;28;20479;-86
2023/04/24 06:54:29;;;;;;;13.60;10.37;;;13.90;99.90;;;;;;4989684;28;20476;-90
2023/04/24 06:56:57;;;;;;;22.33;17.50;;;13.90;99.90;;;;;;4989526;28;20906;-80
2023/04/24 06:59:25;;;;;;;21.17;16.07;;;13.90;99.90;;;;;;4991438;28;20445;-80
2023/04/24 07:01:51;;;;;;;23.10;16.90;;;13.90;99.90;;;;;;4989879;28;20418;-80
2023/04/24 07:04:17;;;;;;;20.10;17.43;;;13.90;99.90;;;;;;4992566;28;20462;-86
2023/04/24 07:06:45;;;;;;;23.47;17.80;;;13.90;99.90;;;;;;4990509;28;20531;-85
2023/04/24 07:09:11;;;;;;;19.23;14.67;;;13.90;99.90;;;;;;4989410;28;20841;-80
2023/04/24 07:11:39;;;;;;;21.13;18.93;;;13.90;99.90;;;;;;4987858;28;20426;-89
2023/04/24 07:14:04;;;;;;;21.57;19.27;;;14.00;99.90;;;;;;4990716;28;20484;-88
2023/04/24 07:16:30;;;;;;;21.97;17.17;;;14.10;99.90;;;;;;4990671;28;20480;-80
2023/04/24 07:18:55;;;;;;;19.77;17.67;;;14.20;99.90;;;;;;4991980;28;20192;-80
2023/04/24 07:21:21;;;;;;;19.43;17.33;;;14.20;99.90;;;;;;4991381;28;20252;-79
2023/04/24 07:23:47;;;;;;;23.30;19.70;;;14.30;99.90;;;;;;4989304;28;20599;-79
2023/04/24 07:26:14;;;;;;;23.90;17.60;;;14.40;99.90;;;;;;4987221;28;20220;-84
2023/04/24 07:28:40;;;;;;;24.33;18.73;;;14.50;99.90;;;;;;4987466;28;20483;-80
2023/04/24 07:31:06;;;;;;;20.23;17.30;;;14.50;99.90;;;;;;4982250;28;20451;-79
2023/04/24 07:33:32;;;;;;;23.77;20.40;;;14.60;99.90;;;;;;4991929;28;20787;-80
2023/04/24 07:35:59;;;;;;;21.47;18.50;;;14.60;99.90;;;;;;4995017;28;20454;-87
2023/04/24 07:38:25;;;;;;;24.97;18.80;;;14.70;99.90;;;;;;4992225;28;20222;-92
2023/04/24 07:40:51;;;;;;;23.53;17.23;;;14.80;99.90;;;;;;4990126;28;20488;-81
2023/04/24 07:43:18;;;;;;;21.10;18.90;;;14.80;99.90;;;;;;4993318;28;20513;-88
2023/04/24 07:45:44;;;;;;;21.50;17.30;;;14.90;99.90;;;;;;4993426;28;20468;-81
2023/04/24 07:48:10;;;;;;;20.10;18.00;;;15.00;99.90;;;;;;4981299;28;20422;-86
2023/04/24 07:50:36;;;;;;;20.40;17.70;;;15.00;99.90;;;;;;4990673;28;20207;-82
2023/04/24 07:53:02;;;;;;;21.83;19.40;;;15.10;99.90;;;;;;4991928;28;20437;-92
2023/04/24 07:55:28;;;;;;;26.60;19.77;;;15.10;99.90;;;;;;4985539;28;20466;-91
2023/04/24 07:57:54;;;;;;;20.87;18.60;;;15.20;99.90;;;;;;4980147;28;20467;-81
2023/04/24 08:00:20;;;;;;;20.20;17.10;;;15.30;99.90;;;;;;5004243;28;20192;-92
2023/04/24 08:02:46;;;;;;;21.43;17.67;;;15.30;99.90;;;;;;4994769;28;20176;-81
2023/04/24 08:05:12;;;;;;;22.80;17.10;;;15.40;99.90;;;;;;4990082;28;20531;-92
2023/04/24 08:07:38;;;;;;;134.77;72.10;;;15.40;99.90;;;;;;4990498;28;20202;-91
2023/04/24 08:10:05;;;;;;;19.83;16.80;;;15.40;99.90;;;;;;4986441;28;20496;-81
2023/04/24 08:12:31;;;;;;;21.77;19.47;;;15.50;99.90;;;;;;4993538;28;20491;-89
2023/04/24 08:14:57;;;;;;;18.90;16.93;;;15.50;99.90;;;;;;4991443;28;20448;-82
2023/04/24 08:17:24;;;;;;;24.80;20.43;;;15.50;99.90;;;;;;4991758;28;21041;-81
2023/04/24 08:19:51;;;;;;;20.43;18.07;;;15.50;99.90;;;;;;4991384;28;20223;-92
2023/04/24 08:22:17;;;;;;;24.20;18.63;;;15.60;99.90;;;;;;4990874;28;20448;-91
2023/04/24 08:24:43;;;;;;;30.20;18.63;;;15.70;99.90;;;;;;4991884;28;20503;-91
2023/04/24 08:27:10;;;;;;;20.80;17.60;;;15.70;99.90;;;;;;4992621;28;20437;-89
2023/04/24 08:29:36;;;;;;;19.67;15.30;;;15.70;99.90;;;;;;4994302;28;20539;-90
2023/04/24 08:32:02;;;;;;;20.10;17.87;;;15.70;99.90;;;;;;4989264;28;20457;-92
2023/04/24 08:34:27;;;;;;;19.93;17.93;;;15.70;99.90;;;;;;5005145;28;20486;-92
2023/04/24 08:36:53;;;;;;;22.30;19.97;;;15.80;99.90;;;;;;4994006;28;20424;-81
2023/04/24 08:39:20;;;;;;;20.97;18.67;;;15.90;99.90;;;;;;4993284;28;20231;-92
2023/04/24 08:41:47;;;;;;;20.40;16.53;;;16.00;99.90;;;;;;4992600;28;20252;-91
2023/04/24 08:44:15;;;;;;;20.13;17.07;;;16.00;99.90;;;;;;4990482;28;20452;-90
2023/04/24 08:46:47;;;;;;;20.87;16.50;;;16.10;99.90;;;;;;4989576;28;20449;-92
2023/04/24 08:49:16;;;;;;;19.50;16.40;;;16.20;99.90;;;;;;4996847;28;20509;-81
2023/04/24 08:51:42;;;;;;;22.50;20.20;;;16.20;99.90;;;;;;4993842;28;20417;-80
2023/04/24 08:54:08;;;;;;;19.30;15.10;;;16.20;99.90;;;;;;4972753;28;20437;-91
2023/04/24 08:56:38;;;;;;;23.43;16.80;;;16.30;99.90;;;;;;5008392;28;20523;-81
2023/04/24 08:59:06;;;;;;;19.37;15.20;;;16.30;99.90;;;;;;4983184;28;20441;-81
2023/04/24 09:01:33;;;;;;;19.70;17.50;;;16.40;99.90;;;;;;4981651;28;20476;-82
2023/04/24 09:04:03;;;;;;;21.03;17.53;;;16.40;99.90;;;;;;4990851;28;20433;-92
2023/04/24 09:06:30;;;;;;;18.47;16.57;;;16.50;99.90;;;;;;5003690;28;20990;-81
2023/04/24 09:08:57;;;;;;;19.17;17.23;;;16.60;99.90;;;;;;4984492;28;20477;-82
2023/04/24 09:11:24;;;;;;;20.00;16.60;;;16.70;99.90;;;;;;4996207;28;20456;-92
2023/04/24 09:13:51;;;;;;;18.67;16.77;;;16.80;99.90;;;;;;4990857;28;21004;-92
2023/04/24 09:16:17;;;;;;;18.93;15.97;;;16.90;99.90;;;;;;4992165;28;20441;-93
2023/04/24 09:18:43;;;;;;;17.33;15.53;;;17.00;99.90;;;;;;4988730;28;20433;-92
2023/04/24 09:21:09;;;;;;;17.83;15.00;;;17.10;99.90;;;;;;4992437;28;20444;-88
2023/04/24 09:23:35;;;;;;;19.17;15.13;;;17.20;99.90;;;;;;4993328;28;20559;-82
2023/04/24 09:26:04;;;;;;;18.63;15.63;;;17.30;99.90;;;;;;4991428;28;20535;-81
2023/04/24 09:28:37;;;;;;;17.13;15.33;;;17.40;99.90;;;;;;4994432;28;20469;-81
2023/04/24 09:31:08;;;;;;;17.00;15.10;;;17.40;99.90;;;;;;4989316;28;20476;-92
2023/04/24 09:33:34;;;;;;;15.30;13.70;;;17.40;99.90;;;;;;4993393;28;20456;-88
2023/04/24 09:36:00;;;;;;;13.73;12.33;;;17.40;99.90;;;;;;4995468;28;20495;-81
2023/04/24 09:38:32;;;;;;;21.53;17.50;;;17.40;99.90;;;;;;4992068;28;21013;-92
2023/04/24 09:41:06;;;;;;;34.53;27.33;;;17.20;99.90;;;;;;4992199;28;20468;-92
2023/04/24 09:43:33;;;;;;;42.53;27.67;;;17.30;99.90;;;;;;4999524;28;20436;-91
2023/04/24 09:46:03;;;;;;;17.20;15.20;;;17.30;99.90;;;;;;4995626;28;20444;-92
2023/04/24 09:48:34;;;;;;;20.27;16.03;;;17.20;99.90;;;;;;4994420;28;20445;-81
2023/04/24 09:51:02;;;;;;;16.20;12.60;;;17.10;99.90;;;;;;4990550;28;20520;-92
2023/04/24 09:53:29;;;;;;;27.57;22.67;;;17.10;99.90;;;;;;5003027;28;20448;-81
2023/04/24 09:55:55;;;;;;;34.83;23.97;;;17.20;99.90;;;;;;5011294;28;20517;-92
2023/04/24 09:58:28;;;;;;;41.17;23.97;;;17.30;99.90;;;;;;5010210;28;20444;-90
2023/04/24 10:00:55;;;;;;;40.43;26.33;;;17.30;99.90;;;;;;4989234;28;20484;-94
2023/04/24 10:03:25;;;;;;;39.10;23.73;;;17.40;99.90;;;;;;4984310;28;20437;-81
2023/04/24 10:05:52;;;;;;;61.23;35.13;;;17.30;99.90;;;;;;4981536;28;20458;-92
2023/04/24 10:08:18;;;;;;;33.60;26.13;;;17.40;99.90;;;;;;4994127;28;20436;-81
2023/04/24 10:10:45;;;;;;;24.17;19.53;;;17.40;99.90;;;;;;4993710;28;20473;-82
2023/04/24 10:13:14;;;;;;;22.90;17.80;;;17.30;99.90;;;;;;4975657;28;20189;-91
2023/04/24 10:15:41;;;;;;;30.10;19.80;;;17.50;99.90;;;;;;4980604;28;20462;-80
2023/04/24 10:18:08;;;;;;;13.37;11.97;;;17.70;99.90;;;;;;4986412;28;20927;-81
2023/04/24 10:20:37;;;;;;;13.53;12.13;;;17.80;99.90;;;;;;4988510;28;20466;-92
2023/04/24 10:23:03;;;;;;;15.20;12.17;;;18.00;99.90;;;;;;4986098;28;20942;-81
2023/04/24 10:25:31;;;;;;;12.27;11.17;;;18.20;99.90;;;;;;4987780;28;20512;-92
2023/04/24 10:27:59;;;;;;;16.43;14.00;;;18.30;99.90;;;;;;4987347;28;20458;-81
2023/04/24 10:30:26;;;;;;;14.83;13.30;;;18.40;99.90;;;;;;4987751;28;20493;-92
2023/04/24 10:32:52;;;;;;;19.87;17.40;;;18.50;99.90;;;;;;4994814;28;20644;-92
2023/04/24 10:35:19;;;;;;;19.60;17.50;;;18.50;99.90;;;;;;4994351;28;20642;-91
2023/04/24 10:38:12;;;;;;;20.77;18.17;;;18.40;99.90;;;;;;4989500;28;20664;-92
2023/04/24 10:40:37;;;;;;;18.60;16.40;;;18.30;99.90;;;;;;4982289;28;20482;-81
2023/04/24 10:43:07;;;;;;;18.20;15.70;;;18.10;99.90;;;;;;4989170;28;20810;-80
2023/04/24 10:45:33;;;;;;;27.80;24.33;;;17.80;99.90;;;;;;4988187;28;20204;-88
2023/04/24 10:48:05;;;;;;;28.83;21.90;;;17.80;99.90;;;;;;4982455;28;20430;-81
2023/04/24 10:50:53;;;;;;;31.30;24.17;;;17.70;99.90;;;;;;4982804;28;20496;-80
2023/04/24 10:53:23;;;;;;;30.70;25.37;;;17.60;99.90;;;;;;4986238;28;20470;-80
2023/04/24 10:55:51;;;;;;;41.07;30.23;;;17.60;99.90;;;;;;4988060;28;20976;-81
2023/04/24 10:58:22;;;;;;;19.07;16.47;;;17.60;99.90;;;;;;4987006;28;20431;-80
2023/04/24 11:00:58;;;;;;;88.17;62.00;;;17.50;99.90;;;;;;4988664;28;20469;-90
2023/04/24 11:03:28;;;;;;;31.53;26.70;;;17.30;99.90;;;;;;4985431;28;20418;-91
2023/04/24 11:06:00;;;;;;;38.90;33.53;;;17.10;99.90;;;;;;4982933;28;20472;-92
2023/04/24 11:08:28;;;;;;;23.57;21.00;;;17.00;99.90;;;;;;5002728;28;20444;-91
2023/04/24 11:10:57;;;;;;;17.20;15.40;;;17.00;99.90;;;;;;4987151;28;20438;-80
2023/04/24 11:13:28;;;;;;;16.47;13.10;;;17.10;99.90;;;;;;5001725;28;20433;-90
2023/04/24 11:16:21;;;;;;;28.40;25.50;;;17.00;99.90;;;;;;4987087;28;20901;-92
2023/04/24 11:18:53;;;;;;;13.70;12.30;;;16.90;99.90;;;;;;4987852;28;20476;-90
2023/04/24 11:21:20;;;;;;;12.10;10.40;;;16.90;99.90;;;;;;4982882;28;20454;-80
2023/04/24 11:23:46;;;;;;;11.37;10.27;;;16.80;99.90;;;;;;4985558;28;20437;-90
2023/04/24 11:26:24;;;;;;;13.57;10.23;;;16.70;99.90;;;;;;4988117;28;20496;-92
2023/04/24 11:28:50;;;;;;;20.13;17.30;;;16.80;99.90;;;;;;4977392;28;20484;-81
2023/04/24 11:31:38;;;;;;;15.77;13.63;;;17.00;99.90;;;;;;4987941;28;20463;-81
2023/04/24 11:34:14;;;;;;;12.30;9.30;;;17.10;99.90;;;;;;5000683;28;20451;-90
2023/04/24 11:36:43;;;;;;;12.53;9.20;;;17.30;99.90;;;;;;4986540;28;20440;-81
2023/04/24 11:39:10;;;;;;;11.33;7.97;;;17.40;99.90;;;;;;4985835;28;20560;-80
2023/04/24 11:41:36;;;;;;;12.77;9.30;;;17.30;99.90;;;;;;4988782;28;20577;-90
2023/04/24 11:44:03;;;;;;;11.97;10.40;;;17.30;99.90;;;;;;4983783;28;20553;-81
2023/04/24 11:46:31;;;;;;;9.10;8.20;;;17.40;99.90;;;;;;4990630;28;20224;-90
2023/04/24 11:48:58;;;;;;;13.10;11.70;;;17.20;99.90;;;;;;4995278;28;20481;-81
2023/04/24 11:51:26;;;;;;;15.57;11.40;;;17.10;99.90;;;;;;4997350;28;20462;-92
2023/04/24 11:53:53;;;;;;;11.50;10.27;;;17.10;99.90;;;;;;4987441;28;20495;-81
2023/04/24 11:56:23;;;;;;;13.30;10.80;;;17.10;99.90;;;;;;4980603;28;20955;-81
2023/04/24 11:58:53;;;;;;;12.23;10.73;;;17.10;99.90;;;;;;4987745;28;20453;-81
2023/04/24 12:01:20;;;;;;;12.23;10.90;;;17.10;99.90;;;;;;4981444;28;20542;-91
2023/04/24 12:03:54;;;;;;;20.13;17.37;;;17.00;99.90;;;;;;4986126;28;20449;-93
2023/04/24 12:06:20;;;;;;;16.83;13.13;;;17.00;99.90;;;;;;4987723;28;20446;-81
2023/04/24 12:08:47;;;;;;;14.93;13.20;;;17.10;99.90;;;;;;4976106;28;20549;-82
2023/04/24 12:11:15;;;;;;;15.47;13.87;;;17.20;99.90;;;;;;4991554;28;20208;-81
2023/04/24 12:13:42;;;;;;;15.50;13.90;;;17.20;99.90;;;;;;4984285;28;20671;-92
2023/04/24 12:16:08;;;;;;;15.77;14.10;;;17.20;99.90;;;;;;4983537;28;20462;-92
2023/04/24 12:18:33;;;;;;;19.90;16.60;;;17.10;99.90;;;;;;4985892;28;20765;-81
2023/04/24 12:21:20;;;;;;;17.03;15.13;;;17.10;99.90;;;;;;4975032;28;20208;-82
2023/04/24 12:23:46;;;;;;;16.40;14.70;;;17.10;99.90;;;;;;4979283;28;20187;-92
2023/04/24 12:26:22;;;;;;;16.30;14.40;;;17.10;99.90;;;;;;4988554;28;20492;-81
2023/04/24 12:28:49;;;;;;;19.07;16.60;;;17.10;99.90;;;;;;4978532;28;20762;-91